createdAt,value
2019-01-12T00:00:11.095Z,101241.21
2019-01-12T00:01:14.960Z,101241.59
2019-01-12T00:02:18.633Z,101241.42
2019-01-12T00:03:20.634Z,101230.48
2019-01-12T00:04:22.617Z,101239.58
2019-01-12T00:05:24.558Z,101242.19
2019-01-12T00:06:26.495Z,101240.50
2019-01-12T00:07:28.446Z,101240.88
2019-01-12T00:08:30.459Z,101241.64
2019-01-12T00:09:33.074Z,101243.86
2019-01-12T00:10:35.022Z,101238.13
2019-01-12T00:11:36.996Z,101239.80
2019-01-12T00:12:41.194Z,101244.63
2019-01-12T00:13:42.575Z,101238.88
2019-01-12T00:14:44.558Z,101242.02
2019-01-12T00:15:46.552Z,101247.06
2019-01-12T00:16:48.494Z,101240.94
2019-01-12T00:17:50.443Z,101236.11
2019-01-12T00:18:52.370Z,101249.28
2019-01-12T00:19:54.333Z,101245.22
2019-01-12T00:20:56.262Z,101243.92
2019-01-12T00:21:58.204Z,101241.70
2019-01-12T00:23:00.146Z,101238.89
2019-01-12T00:24:02.171Z,101239.66
2019-01-12T00:25:04.167Z,101240.77
2019-01-12T00:26:06.100Z,101241.88
2019-01-12T00:27:08.033Z,101236.87
2019-01-12T00:28:10.071Z,101236.87
2019-01-12T00:29:12.085Z,101234.61
2019-01-12T00:30:14.052Z,101234.07
2019-01-12T00:31:16.008Z,101233.15
2019-01-12T00:32:17.953Z,101230.92
2019-01-12T00:33:19.912Z,101230.17
2019-01-12T00:34:21.931Z,101229.25
2019-01-12T00:35:23.892Z,101233.69
2019-01-12T00:36:25.830Z,101231.09
2019-01-12T00:37:28.770Z,101231.09
2019-01-12T00:38:30.684Z,101224.05
2019-01-12T00:39:32.758Z,101228.70
2019-01-12T00:40:34.729Z,101226.11
2019-01-12T00:41:36.661Z,101230.01
2019-01-12T00:42:38.591Z,101230.92
2019-01-12T00:43:40.543Z,101226.11
2019-01-12T00:44:42.559Z,101226.11
2019-01-12T00:45:44.526Z,101223.13
2019-01-12T00:46:46.454Z,101225.91
2019-01-12T00:47:48.991Z,101226.83
2019-01-12T00:48:50.945Z,101219.78
2019-01-12T00:49:52.953Z,101227.41
2019-01-12T00:50:54.941Z,101222.00
2019-01-12T00:51:56.879Z,101225.36
2019-01-12T00:52:58.826Z,101223.31
2019-01-12T00:54:00.776Z,101223.50
2019-01-12T00:55:02.711Z,101222.93
2019-01-12T00:56:04.671Z,101217.73
2019-01-12T00:57:06.612Z,101221.09
2019-01-12T00:58:08.559Z,101219.03
2019-01-12T00:59:11.849Z,101213.28
2019-01-12T01:00:13.875Z,101214.05
2019-01-12T01:01:16.181Z,101210.14
2019-01-12T01:02:18.121Z,101215.89
2019-01-12T01:03:20.063Z,101209.77
2019-01-12T01:04:21.997Z,101198.98
2019-01-12T01:05:23.929Z,101195.45
2019-01-12T01:06:26.151Z,101204.94
2019-01-12T01:07:28.665Z,101199.73
2019-01-12T01:08:30.613Z,101201.80
2019-01-12T01:09:32.546Z,101201.96
2019-01-12T01:10:34.472Z,101202.72
2019-01-12T01:11:36.449Z,101199.73
2019-01-12T01:12:38.408Z,101200.50
2019-01-12T01:13:40.434Z,101202.72
2019-01-12T01:14:42.383Z,101201.80
2019-01-12T01:15:44.341Z,101204.02
2019-01-12T01:16:46.399Z,101200.50
2019-01-12T01:17:48.333Z,101204.02
2019-01-12T01:18:50.270Z,101191.39
2019-01-12T01:19:52.211Z,101191.02
2019-01-12T01:20:57.763Z,101193.45
2019-01-12T01:21:59.738Z,101190.09
2019-01-12T01:23:01.664Z,101195.30
2019-01-12T01:24:03.606Z,101192.70
2019-01-12T01:25:05.635Z,101196.44
2019-01-12T01:26:07.575Z,101192.53
2019-01-12T01:27:09.566Z,101195.67
2019-01-12T01:28:11.586Z,101191.39
2019-01-12T01:29:13.530Z,101195.30
2019-01-12T01:30:15.459Z,101191.39
2019-01-12T01:31:21.069Z,101196.59
2019-01-12T01:32:23.033Z,101190.09
2019-01-12T01:33:28.056Z,101189.17
2019-01-12T01:34:29.229Z,101194.38
2019-01-12T01:35:31.188Z,101188.63
2019-01-12T01:36:33.133Z,101187.33
2019-01-12T01:37:35.105Z,101186.58
2019-01-12T01:38:37.056Z,101189.17
2019-01-12T01:39:39.021Z,101183.97
2019-01-12T01:40:40.968Z,101184.52
2019-01-12T01:41:42.920Z,101188.03
2019-01-12T01:42:44.900Z,101187.12
2019-01-12T01:43:46.834Z,101188.03
2019-01-12T01:44:48.779Z,101187.12
2019-01-12T01:45:50.727Z,101188.80
2019-01-12T01:46:52.743Z,101190.64
2019-01-12T01:47:54.736Z,101191.39
2019-01-12T01:48:56.665Z,101190.09
2019-01-12T01:49:58.628Z,101187.12
2019-01-12T01:51:00.552Z,101182.30
2019-01-12T01:52:02.508Z,101188.41
2019-01-12T01:53:04.460Z,101184.52
2019-01-12T01:54:06.404Z,101184.52
2019-01-12T01:55:08.344Z,101178.94
2019-01-12T01:56:10.277Z,101180.08
2019-01-12T01:57:12.216Z,101184.52
2019-01-12T01:58:14.166Z,101176.72
2019-01-12T01:59:16.108Z,101181.91
2019-01-12T02:00:18.214Z,101177.47
2019-01-12T02:01:20.230Z,101184.52
2019-01-12T02:02:22.174Z,101178.94
2019-01-12T02:03:24.387Z,101175.80
2019-01-12T02:04:26.328Z,101170.21
2019-01-12T02:05:28.265Z,101168.91
2019-01-12T02:06:30.205Z,101170.76
2019-01-12T02:07:32.157Z,101177.25
2019-01-12T02:08:34.212Z,101169.45
2019-01-12T02:09:36.234Z,101162.03
2019-01-12T02:10:38.183Z,101161.66
2019-01-12T02:11:40.128Z,101167.77
2019-01-12T02:12:42.143Z,101160.73
2019-01-12T02:13:44.198Z,101162.95
2019-01-12T02:14:46.137Z,101154.23
2019-01-12T02:15:48.121Z,101159.05
2019-01-12T02:16:50.069Z,101154.61
2019-01-12T02:17:52.022Z,101159.05
2019-01-12T02:18:54.057Z,101157.21
2019-01-12T02:19:56.339Z,101154.23
2019-01-12T02:20:58.286Z,101151.63
2019-01-12T02:22:00.310Z,101152.94
2019-01-12T02:23:02.329Z,101141.98
2019-01-12T02:24:04.294Z,101143.29
2019-01-12T02:25:06.234Z,101149.95
2019-01-12T02:26:08.168Z,101138.25
2019-01-12T02:27:10.109Z,101143.45
2019-01-12T02:28:12.044Z,101143.07
2019-01-12T02:29:14.011Z,101141.39
2019-01-12T02:30:15.972Z,101137.11
2019-01-12T02:31:17.919Z,101136.19
2019-01-12T02:32:19.854Z,101142.31
2019-01-12T02:33:21.802Z,101142.69
2019-01-12T02:34:23.775Z,101137.48
2019-01-12T02:35:25.704Z,101137.88
2019-01-12T02:36:27.646Z,101143.45
2019-01-12T02:37:29.597Z,101139.17
2019-01-12T02:38:31.685Z,101132.83
2019-01-12T02:39:33.704Z,101131.19
2019-01-12T02:40:35.704Z,101129.89
2019-01-12T02:41:37.655Z,101133.95
2019-01-12T02:42:39.614Z,101130.23
2019-01-12T02:43:41.575Z,101122.81
2019-01-12T02:44:45.246Z,101123.38
2019-01-12T02:45:47.269Z,101123.73
2019-01-12T02:46:49.229Z,101118.53
2019-01-12T02:47:51.242Z,101129.13
2019-01-12T02:48:53.186Z,101120.02
2019-01-12T02:49:58.042Z,101122.25
2019-01-12T02:51:00.006Z,101112.60
2019-01-12T02:52:02.112Z,101116.50
2019-01-12T02:53:04.064Z,101115.58
2019-01-12T02:54:06.020Z,101117.42
2019-01-12T02:55:09.140Z,101110.55
2019-01-12T02:56:11.280Z,101110.55
2019-01-12T02:57:13.214Z,101111.84
2019-01-12T02:58:15.164Z,101111.30
2019-01-12T02:59:17.114Z,101115.36
2019-01-12T03:00:19.082Z,101110.16
2019-01-12T03:01:21.021Z,101110.55
2019-01-12T03:02:22.952Z,101107.94
2019-01-12T03:03:24.888Z,101111.46
2019-01-12T03:04:27.406Z,101098.08
2019-01-12T03:05:29.384Z,101105.88
2019-01-12T03:06:31.334Z,101102.36
2019-01-12T03:07:33.276Z,101093.26
2019-01-12T03:08:35.206Z,101095.13
2019-01-12T03:09:37.149Z,101104.23
2019-01-12T03:10:39.113Z,101092.88
2019-01-12T03:11:41.034Z,101092.88
2019-01-12T03:12:42.974Z,101095.48
2019-01-12T03:13:44.912Z,101089.73
2019-01-12T03:14:46.864Z,101091.95
2019-01-12T03:15:48.887Z,101090.28
2019-01-12T03:16:50.828Z,101089.17
2019-01-12T03:17:52.808Z,101088.25
2019-01-12T03:18:54.883Z,101086.19
2019-01-12T03:19:56.810Z,101078.23
2019-01-12T03:20:58.808Z,101078.77
2019-01-12T03:22:00.818Z,101080.61
2019-01-12T03:23:02.791Z,101079.53
2019-01-12T03:24:04.771Z,101080.45
2019-01-12T03:25:06.716Z,101077.85
2019-01-12T03:26:08.688Z,101072.81
2019-01-12T03:27:10.618Z,101071.51
2019-01-12T03:28:12.547Z,101061.87
2019-01-12T03:29:14.496Z,101066.15
2019-01-12T03:30:16.428Z,101063.55
2019-01-12T03:31:18.468Z,101064.09
2019-01-12T03:32:20.517Z,101065.77
2019-01-12T03:33:22.621Z,101064.09
2019-01-12T03:34:24.811Z,101065.01
2019-01-12T03:35:26.835Z,101064.63
2019-01-12T03:36:31.205Z,101054.45
2019-01-12T03:37:33.130Z,101058.89
2019-01-12T03:38:36.135Z,101053.69
2019-01-12T03:39:38.086Z,101054.45
2019-01-12T03:40:40.026Z,101059.64
2019-01-12T03:41:43.956Z,101054.98
2019-01-12T03:42:45.701Z,101054.61
2019-01-12T03:43:47.624Z,101051.47
2019-01-12T03:44:49.567Z,101049.63
2019-01-12T03:45:51.509Z,101049.63
2019-01-12T03:46:53.476Z,101053.69
2019-01-12T03:47:55.472Z,101046.27
2019-01-12T03:48:57.458Z,101048.10
2019-01-12T03:49:59.460Z,101046.64
2019-01-12T03:51:01.488Z,101044.05
2019-01-12T03:52:03.526Z,101048.86
2019-01-12T03:53:05.466Z,101040.14
2019-01-12T03:54:07.403Z,101045.34
2019-01-12T03:55:09.361Z,101046.27
2019-01-12T03:56:11.295Z,101046.06
2019-01-12T03:57:13.262Z,101040.87
2019-01-12T03:58:16.758Z,101044.77
2019-01-12T03:59:18.714Z,101042.73
2019-01-12T04:00:20.660Z,101043.47
2019-01-12T04:01:22.674Z,101045.72
2019-01-12T04:02:24.638Z,101036.80
2019-01-12T04:03:26.562Z,101043.13
2019-01-12T04:04:28.709Z,101035.32
2019-01-12T04:05:30.636Z,101031.77
2019-01-12T04:06:32.576Z,101035.66
2019-01-12T04:07:34.547Z,101035.66
2019-01-12T04:08:36.480Z,101024.34
2019-01-12T04:09:38.432Z,101023.42
2019-01-12T04:10:40.429Z,101025.11
2019-01-12T04:11:42.374Z,101024.34
2019-01-12T04:12:44.357Z,101027.33
2019-01-12T04:13:46.294Z,101027.70
2019-01-12T04:14:48.242Z,101019.14
2019-01-12T04:15:50.195Z,101018.60
2019-01-12T04:16:52.135Z,101013.41
2019-01-12T04:17:54.107Z,101016.38
2019-01-12T04:18:56.087Z,101012.48
2019-01-12T04:19:58.096Z,101008.97
2019-01-12T04:21:00.037Z,101010.80
2019-01-12T04:22:01.979Z,101013.41
2019-01-12T04:23:03.956Z,101006.90
2019-01-12T04:24:05.973Z,101012.10
2019-01-12T04:25:07.901Z,101011.72
2019-01-12T04:26:09.852Z,101007.82
2019-01-12T04:27:11.870Z,101010.04
2019-01-12T04:28:13.842Z,101005.41
2019-01-12T04:29:15.782Z,101001.89
2019-01-12T04:30:17.857Z,101004.87
2019-01-12T04:31:19.877Z,101001.16
2019-01-12T04:32:21.839Z,101005.06
2019-01-12T04:33:23.872Z,100990.38
2019-01-12T04:34:25.821Z,100995.01
2019-01-12T04:35:27.849Z,100988.16
2019-01-12T04:36:29.792Z,100984.26
2019-01-12T04:37:31.732Z,100985.18
2019-01-12T04:38:34.360Z,100993.14
2019-01-12T04:39:36.291Z,100984.80
2019-01-12T04:40:38.230Z,100987.78
2019-01-12T04:41:40.181Z,100984.26
2019-01-12T04:42:42.117Z,100976.08
2019-01-12T04:43:44.107Z,100982.20
2019-01-12T04:44:46.061Z,100973.48
2019-01-12T04:45:48.049Z,100986.48
2019-01-12T04:46:49.988Z,100977.38
2019-01-12T04:47:51.915Z,100974.78
2019-01-12T04:48:54.262Z,100970.30
2019-01-12T04:49:56.187Z,100970.88
2019-01-12T04:50:58.132Z,100963.27
2019-01-12T04:52:00.083Z,100962.73
2019-01-12T04:53:02.018Z,100966.25
2019-01-12T04:54:04.006Z,100962.73
2019-01-12T04:55:06.044Z,100965.33
2019-01-12T04:56:08.044Z,100962.73
2019-01-12T04:57:09.982Z,100960.13
2019-01-12T04:58:11.925Z,100963.11
2019-01-12T04:59:13.886Z,100964.41
2019-01-12T05:00:15.826Z,100962.73
2019-01-12T05:01:17.787Z,100958.45
2019-01-12T05:02:19.716Z,100957.91
2019-01-12T05:03:21.650Z,100960.50
2019-01-12T05:04:23.645Z,100961.05
2019-01-12T05:05:25.591Z,100962.73
2019-01-12T05:06:27.612Z,100964.02
2019-01-12T05:07:29.561Z,100964.95
2019-01-12T05:08:31.505Z,100967.16
2019-01-12T05:09:33.487Z,100961.05
2019-01-12T05:10:35.492Z,100970.69
2019-01-12T05:11:37.547Z,100964.19
2019-01-12T05:12:39.561Z,100961.42
2019-01-12T05:13:41.569Z,100962.88
2019-01-12T05:14:44.790Z,100955.46
2019-01-12T05:15:46.743Z,100959.90
2019-01-12T05:16:48.697Z,100954.16
2019-01-12T05:17:50.709Z,100951.56
2019-01-12T05:18:52.735Z,100947.28
2019-01-12T05:19:54.677Z,100948.96
2019-01-12T05:20:56.628Z,100947.28
2019-01-12T05:21:58.644Z,100952.86
2019-01-12T05:23:00.579Z,100943.00
2019-01-12T05:24:02.519Z,100943.38
2019-01-12T05:25:04.473Z,100945.60
2019-01-12T05:26:06.405Z,100939.86
2019-01-12T05:27:08.346Z,100938.75
2019-01-12T05:28:10.291Z,100937.45
2019-01-12T05:29:15.971Z,100936.16
2019-01-12T05:30:17.906Z,100935.20
2019-01-12T05:31:22.205Z,100936.69
2019-01-12T05:32:24.129Z,100936.69
2019-01-12T05:33:26.063Z,100934.47
2019-01-12T05:34:28.023Z,100927.05
2019-01-12T05:35:30.057Z,100932.41
2019-01-12T05:36:32.001Z,100930.34
2019-01-12T05:37:34.012Z,100928.51
2019-01-12T05:38:36.025Z,100929.42
2019-01-12T05:39:38.031Z,100928.13
2019-01-12T05:40:40.019Z,100927.40
2019-01-12T05:41:42.025Z,100927.40
2019-01-12T05:42:43.973Z,100926.09
2019-01-12T05:43:45.904Z,100933.14
2019-01-12T05:44:47.836Z,100921.05
2019-01-12T05:45:49.812Z,100922.35
2019-01-12T05:46:51.859Z,100919.52
2019-01-12T05:47:53.816Z,100914.70
2019-01-12T05:48:55.831Z,100918.61
2019-01-12T05:49:57.762Z,100914.86
2019-01-12T05:51:00.216Z,100901.09
2019-01-12T05:52:02.237Z,100902.70
2019-01-12T05:53:04.174Z,100898.58
2019-01-12T05:54:06.193Z,100903.20
2019-01-12T05:55:08.228Z,100898.69
2019-01-12T05:56:10.282Z,100903.52
2019-01-12T05:57:12.212Z,100896.78
2019-01-12T05:58:14.156Z,100900.45
2019-01-12T05:59:16.103Z,100895.56
2019-01-12T06:00:18.042Z,100900.56
2019-01-12T06:01:20.004Z,100890.70
2019-01-12T06:02:21.942Z,100892.16
2019-01-12T06:03:23.895Z,100890.09
2019-01-12T06:04:25.846Z,100891.92
2019-01-12T06:05:27.799Z,100892.46
2019-01-12T06:06:29.790Z,100883.36
2019-01-12T06:07:31.814Z,100889.48
2019-01-12T06:08:33.753Z,100888.56
2019-01-12T06:09:35.698Z,100896.90
2019-01-12T06:10:37.650Z,100889.09
2019-01-12T06:11:39.604Z,100883.73
2019-01-12T06:12:41.554Z,100885.95
2019-01-12T06:13:43.509Z,100891.00
2019-01-12T06:14:45.460Z,100879.14
2019-01-12T06:15:47.452Z,100884.20
2019-01-12T06:16:49.411Z,100884.58
2019-01-12T06:17:51.342Z,100876.05
2019-01-12T06:18:53.286Z,100877.35
2019-01-12T06:19:55.252Z,100875.13
2019-01-12T06:20:57.195Z,100876.28
2019-01-12T06:21:59.154Z,100874.44
2019-01-12T06:23:01.082Z,100874.06
2019-01-12T06:24:03.046Z,100875.20
2019-01-12T06:25:05.021Z,100866.87
2019-01-12T06:26:07.044Z,100871.00
2019-01-12T06:27:09.023Z,100868.78
2019-01-12T06:28:10.958Z,100862.66
2019-01-12T06:29:12.974Z,100869.55
2019-01-12T06:30:14.912Z,100865.87
2019-01-12T06:31:16.854Z,100862.89
2019-01-12T06:32:18.818Z,100869.20
2019-01-12T06:33:20.766Z,100863.08
2019-01-12T06:34:22.698Z,100859.41
2019-01-12T06:35:24.637Z,100862.55
2019-01-12T06:36:26.581Z,100851.61
2019-01-12T06:37:28.629Z,100864.61
2019-01-12T06:38:30.570Z,100854.97
2019-01-12T06:39:32.518Z,100852.22
2019-01-12T06:40:34.476Z,100844.41
2019-01-12T06:41:36.427Z,100842.20
2019-01-12T06:42:38.479Z,100841.13
2019-01-12T06:43:40.435Z,100849.31
2019-01-12T06:44:42.386Z,100838.38
2019-01-12T06:45:44.320Z,100837.07
2019-01-12T06:46:46.261Z,100838.22
2019-01-12T06:47:48.246Z,100833.40
2019-01-12T06:48:50.260Z,100830.61
2019-01-12T06:49:52.293Z,100838.03
2019-01-12T06:50:54.264Z,100841.93
2019-01-12T06:51:56.266Z,100837.49
2019-01-12T06:52:58.268Z,100836.57
2019-01-12T06:54:00.206Z,100840.86
2019-01-12T06:55:02.143Z,100834.73
2019-01-12T06:56:10.708Z,100838.45
2019-01-12T06:57:07.756Z,100842.73
2019-01-12T06:58:09.737Z,100832.72
2019-01-12T06:59:12.948Z,100839.59
2019-01-12T07:00:14.895Z,100838.67
2019-01-12T07:01:16.909Z,100842.95
2019-01-12T07:02:18.857Z,100843.19
2019-01-12T07:03:20.892Z,100840.05
2019-01-12T07:04:22.832Z,100839.67
2019-01-12T07:05:24.792Z,100833.02
2019-01-12T07:06:28.314Z,100829.87
2019-01-12T07:07:30.355Z,100838.21
2019-01-12T07:08:32.333Z,100832.48
2019-01-12T07:09:34.281Z,100832.48
2019-01-12T07:10:36.207Z,100829.50
2019-01-12T07:11:38.709Z,100826.70
2019-01-12T07:12:40.660Z,100827.09
2019-01-12T07:13:45.896Z,100827.47
2019-01-12T07:14:47.926Z,100822.66
2019-01-12T07:15:49.870Z,100823.03
2019-01-12T07:16:51.827Z,100831.59
2019-01-12T07:17:53.836Z,100820.28
2019-01-12T07:18:55.800Z,100811.94
2019-01-12T07:19:58.305Z,100818.06
2019-01-12T07:21:00.297Z,100810.64
2019-01-12T07:22:02.317Z,100816.61
2019-01-12T07:23:04.785Z,100816.07
2019-01-12T07:24:06.745Z,100813.63
2019-01-12T07:25:08.706Z,100809.58
2019-01-12T07:26:10.729Z,100804.38
2019-01-12T07:27:12.676Z,100807.51
2019-01-12T07:28:17.178Z,100801.39
2019-01-12T07:29:19.154Z,100805.67
2019-01-12T07:30:21.084Z,100805.67
2019-01-12T07:31:23.025Z,100804.14
2019-01-12T07:32:26.994Z,100805.59
2019-01-12T07:33:28.624Z,100803.31
2019-01-12T07:34:30.661Z,100802.34
2019-01-12T07:35:33.149Z,100805.41
2019-01-12T07:36:35.098Z,100807.97
2019-01-12T07:37:37.065Z,100796.22
2019-01-12T07:38:39.035Z,100804.87
2019-01-12T07:39:44.296Z,100808.31
2019-01-12T07:40:46.449Z,100803.80
2019-01-12T07:41:49.444Z,100797.63
2019-01-12T07:42:51.452Z,100799.23
2019-01-12T07:43:53.479Z,100788.75
2019-01-12T07:44:57.439Z,100793.72
2019-01-12T07:45:59.397Z,100795.36
2019-01-12T07:47:01.341Z,100794.20
2019-01-12T07:48:03.321Z,100790.08
2019-01-12T07:49:05.343Z,100788.92
2019-01-12T07:50:07.314Z,100792.59
2019-01-12T07:51:09.265Z,100789.23
2019-01-12T07:52:11.584Z,100787.16
2019-01-12T07:53:13.589Z,100787.30
2019-01-12T07:54:15.539Z,100786.00
2019-01-12T07:55:17.515Z,100779.35
2019-01-12T07:56:24.416Z,100776.36
2019-01-12T07:57:23.139Z,100777.52
2019-01-12T07:58:25.093Z,100774.91
2019-01-12T07:59:27.099Z,100775.83
2019-01-12T08:00:29.071Z,100773.08
2019-01-12T08:01:31.009Z,100766.04
2019-01-12T08:02:38.571Z,100764.59
2019-01-12T08:03:40.545Z,100769.64
2019-01-12T08:04:42.564Z,100763.52
2019-01-12T08:05:44.533Z,100769.50
2019-01-12T08:06:46.499Z,100765.05
2019-01-12T08:07:48.513Z,100768.42
2019-01-12T08:08:52.862Z,100758.60
2019-01-12T08:09:54.818Z,100764.57
2019-01-12T08:10:56.793Z,100759.22
2019-01-12T08:11:58.732Z,100757.00
2019-01-12T08:13:00.663Z,100750.34
2019-01-12T08:14:02.617Z,100752.41
2019-01-12T08:15:04.571Z,100745.37
2019-01-12T08:16:07.120Z,100745.77
2019-01-12T08:17:09.946Z,100743.39
2019-01-12T08:18:12.021Z,100745.99
2019-01-12T08:19:14.037Z,100748.44
2019-01-12T08:20:15.987Z,100739.16
2019-01-12T08:21:17.941Z,100734.34
2019-01-12T08:22:19.893Z,100735.10
2019-01-12T08:23:21.835Z,100729.37
2019-01-12T08:24:23.779Z,100731.44
2019-01-12T08:25:25.808Z,100724.40
2019-01-12T08:26:31.203Z,100720.88
2019-01-12T08:27:31.459Z,100722.03
2019-01-12T08:28:33.399Z,100718.89
2019-01-12T08:29:35.354Z,100711.48
2019-01-12T08:30:37.291Z,100710.95
2019-01-12T08:31:39.269Z,100709.64
2019-01-12T08:32:41.252Z,100709.49
2019-01-12T08:33:43.268Z,100697.41
2019-01-12T08:34:45.243Z,100689.08
2019-01-12T08:35:47.258Z,100690.95
2019-01-12T08:36:49.230Z,100690.95
2019-01-12T08:37:51.178Z,100690.04
2019-01-12T08:38:53.264Z,100680.75
2019-01-12T08:39:55.277Z,100679.06
2019-01-12T08:40:57.444Z,100679.45
2019-01-12T08:41:59.402Z,100674.63
2019-01-12T08:43:01.364Z,100674.10
2019-01-12T08:44:07.464Z,100680.06
2019-01-12T08:45:09.484Z,100670.44
2019-01-12T08:46:11.444Z,100657.44
2019-01-12T08:47:14.032Z,100665.23
2019-01-12T08:48:19.522Z,100663.55
2019-01-12T08:49:21.543Z,100658.20
2019-01-12T08:50:23.482Z,100651.17
2019-01-12T08:51:25.510Z,100648.95
2019-01-12T08:52:27.554Z,100648.03
2019-01-12T08:53:29.498Z,100638.94
2019-01-12T08:54:31.448Z,100644.33
2019-01-12T08:55:35.034Z,100636.53
2019-01-12T08:56:38.427Z,100639.91
2019-01-12T08:57:40.752Z,100639.52
2019-01-12T08:58:42.728Z,100632.48
2019-01-12T08:59:44.672Z,100628.82
2019-01-12T09:00:46.623Z,100632.34
2019-01-12T09:01:48.641Z,100623.62
2019-01-12T09:02:50.606Z,100620.88
2019-01-12T09:03:52.725Z,100623.85
2019-01-12T09:04:54.704Z,100616.20
2019-01-12T09:05:56.648Z,100611.00
2019-01-12T09:06:58.599Z,100615.05
2019-01-12T09:08:04.220Z,100608.32
2019-01-12T09:09:06.231Z,100606.44
2019-01-12T09:10:08.172Z,100599.84
2019-01-12T09:11:10.120Z,100604.97
2019-01-12T09:12:12.714Z,100601.05
2019-01-12T09:13:14.682Z,100590.94
2019-01-12T09:14:36.306Z,100591.77
2019-01-12T09:15:38.317Z,100585.95
2019-01-12T09:16:47.331Z,100588.64
2019-01-12T09:17:49.285Z,100584.50
2019-01-12T09:18:51.326Z,100575.30
2019-01-12T09:19:53.296Z,100581.56
2019-01-12T09:20:55.254Z,100574.82
2019-01-12T09:21:57.211Z,100571.25
2019-01-12T09:22:59.148Z,100578.42
2019-01-12T09:24:01.139Z,100568.16
2019-01-12T09:25:03.688Z,100566.23
2019-01-12T09:26:05.682Z,100561.56
2019-01-12T09:27:07.647Z,100557.13
2019-01-12T09:28:09.628Z,100553.38
2019-01-12T09:29:11.694Z,100546.48
2019-01-12T09:30:13.712Z,100549.09
2019-01-12T09:31:15.660Z,100542.97
2019-01-12T09:32:17.644Z,100542.97
2019-01-12T09:33:22.057Z,100538.15
2019-01-12T09:34:23.339Z,100536.84
2019-01-12T09:35:25.292Z,100541.52
2019-01-12T09:36:27.241Z,100531.74
2019-01-12T09:37:31.902Z,100534.34
2019-01-12T09:38:36.456Z,100522.11
2019-01-12T09:39:38.454Z,100531.59
2019-01-12T09:40:40.424Z,100524.03
2019-01-12T09:41:42.384Z,100516.86
2019-01-12T09:42:44.350Z,100519.66
2019-01-12T09:43:46.370Z,100512.63
2019-01-12T09:44:48.332Z,100504.83
2019-01-12T09:45:50.309Z,100507.28
2019-01-12T09:46:52.257Z,100504.69
2019-01-12T09:47:54.286Z,100498.56
2019-01-12T09:48:56.446Z,100499.05
2019-01-12T09:49:58.466Z,100499.19
2019-01-12T09:51:00.534Z,100492.02
2019-01-12T09:52:02.573Z,100490.72
2019-01-12T09:53:04.593Z,100486.67
2019-01-12T09:54:06.543Z,100490.05
2019-01-12T09:55:08.579Z,100489.48
2019-01-12T09:56:10.637Z,100489.48
2019-01-12T09:57:12.647Z,100482.45
2019-01-12T09:58:14.595Z,100482.30
2019-01-12T09:59:16.555Z,100473.05
2019-01-12T10:00:20.959Z,100479.55
2019-01-12T10:01:22.909Z,100472.52
2019-01-12T10:02:24.865Z,100469.54
2019-01-12T10:03:26.818Z,100477.73
2019-01-12T10:04:30.270Z,100466.27
2019-01-12T10:05:32.233Z,100465.88
2019-01-12T10:06:34.263Z,100462.89
2019-01-12T10:07:36.229Z,100451.05
2019-01-12T10:08:38.229Z,100454.80
2019-01-12T10:09:40.193Z,100449.22
2019-01-12T10:10:42.237Z,100447.92
2019-01-12T10:11:44.192Z,100442.58
2019-01-12T10:12:46.223Z,100442.78
2019-01-12T10:13:48.165Z,100440.56
2019-01-12T10:14:50.086Z,100439.27
2019-01-12T10:15:53.536Z,100437.97
2019-01-12T10:16:55.521Z,100426.13
2019-01-12T10:17:57.469Z,100430.76
2019-01-12T10:18:59.417Z,100420.36
2019-01-12T10:20:01.408Z,100419.44
2019-01-12T10:21:03.385Z,100419.44
2019-01-12T10:22:05.839Z,100424.64
2019-01-12T10:23:07.938Z,100421.52
2019-01-12T10:24:10.096Z,100415.40
2019-01-12T10:25:12.103Z,100408.12
2019-01-12T10:26:14.099Z,100408.12
2019-01-12T10:27:16.117Z,100409.04
2019-01-12T10:28:18.051Z,100405.32
2019-01-12T10:29:19.989Z,100398.05
2019-01-12T10:30:21.921Z,100397.28
2019-01-12T10:31:26.254Z,100387.27
2019-01-12T10:32:39.744Z,100393.77
2019-01-12T10:33:41.767Z,100383.36
2019-01-12T10:34:45.741Z,100378.73
2019-01-12T10:35:47.448Z,100370.54
2019-01-12T10:36:49.500Z,100369.63
2019-01-12T10:37:51.695Z,100370.16
2019-01-12T10:38:53.729Z,100359.22
2019-01-12T10:39:55.696Z,100356.23
2019-01-12T10:40:57.638Z,100348.44
2019-01-12T10:41:59.697Z,100340.00
2019-01-12T10:43:01.647Z,100346.37
2019-01-12T10:44:03.687Z,100342.99
2019-01-12T10:45:05.791Z,100336.73
2019-01-12T10:46:07.822Z,100335.58
2019-01-12T10:47:09.795Z,100339.09
2019-01-12T10:48:11.805Z,100324.02
2019-01-12T10:49:14.056Z,100324.79
2019-01-12T10:50:15.994Z,100324.02
2019-01-12T10:51:22.854Z,100314.77
2019-01-12T10:52:24.669Z,100316.98
2019-01-12T10:53:26.622Z,100318.29
2019-01-12T10:54:28.587Z,100319.20
2019-01-12T10:55:30.611Z,100313.62
2019-01-12T10:56:32.570Z,100308.03
2019-01-12T10:57:34.617Z,100310.10
2019-01-12T10:58:36.662Z,100305.29
2019-01-12T10:59:38.670Z,100304.91
2019-01-12T11:00:40.633Z,100297.10
2019-01-12T11:01:42.665Z,100299.31
2019-01-12T11:02:44.642Z,100296.19
2019-01-12T11:03:46.593Z,100291.90
2019-01-12T11:04:48.539Z,100283.72
2019-01-12T11:05:52.124Z,100284.09
2019-01-12T11:06:55.150Z,100281.11
2019-01-12T11:07:57.154Z,100279.81
2019-01-12T11:08:59.192Z,100271.88
2019-01-12T11:10:04.270Z,100270.96
2019-01-12T11:11:05.731Z,100265.38
2019-01-12T11:12:07.817Z,100259.54
2019-01-12T11:13:09.785Z,100255.11
2019-01-12T11:14:11.856Z,100246.01
2019-01-12T11:15:15.414Z,100246.39
2019-01-12T11:16:17.366Z,100241.97
2019-01-12T11:17:19.297Z,100238.59
2019-01-12T11:18:21.271Z,100241.20
2019-01-12T11:19:23.228Z,100237.30
2019-01-12T11:20:25.362Z,100230.02
2019-01-12T11:21:27.469Z,100229.88
2019-01-12T11:22:29.772Z,100220.78
2019-01-12T11:23:32.158Z,100233.40
2019-01-12T11:24:34.636Z,100232.09
2019-01-12T11:25:42.863Z,100222.47
2019-01-12T11:26:41.023Z,100220.78
2019-01-12T11:27:43.497Z,100214.28
2019-01-12T11:28:45.727Z,100211.68
2019-01-12T11:29:49.427Z,100203.88
2019-01-12T11:30:51.974Z,100215.20
2019-01-12T11:31:54.742Z,100202.97
2019-01-12T11:32:57.034Z,100199.98
2019-01-12T11:33:59.161Z,100200.75
2019-01-12T11:35:01.695Z,100206.48
2019-01-12T11:36:04.254Z,100199.07
2019-01-12T11:37:07.166Z,100192.43
2019-01-12T11:38:09.404Z,100201.92
2019-01-12T11:39:13.897Z,100205.95
2019-01-12T11:40:16.404Z,100209.86
2019-01-12T11:41:18.866Z,100195.17
2019-01-12T11:42:20.963Z,100200.75
2019-01-12T11:43:23.591Z,100207.26
2019-01-12T11:44:26.032Z,100203.74
2019-01-12T11:45:28.570Z,100208.55
2019-01-12T11:46:31.053Z,100205.05
2019-01-12T11:47:33.448Z,100220.64
2019-01-12T11:48:35.598Z,100199.84
2019-01-12T11:49:37.938Z,100208.55